Time;durP1;ratioP1;P1;durP2;ratioP2;P2;SDS_P1;SDS_P2;PMS_P1;PMS_P2;Temp;Humidity;BMP_temperature;BMP_pressure;BME280_temperature;BME280_humidity;BME280_pressure;Samples;Min_cycle;Max_cycle;Signal;HPM_P1;HPM_P2
2023/05/18 00:01:13;;;;;;;12.27;1.77;;;;;;;16.12;35.14;102315.34;5021642;27;98122;-73
2023/05/18 00:03:40;;;;;;;13.38;2.10;;;;;;;15.98;35.55;102317.59;5024323;27;99536;-72
2023/05/18 00:06:06;;;;;;;7.75;1.63;;;;;;;16.02;35.58;102321.00;5021224;27;101330;-72
2023/05/18 00:08:33;;;;;;;4.80;1.10;;;;;;;15.93;35.98;102316.88;5021099;27;97026;-72
2023/05/18 00:11:00;;;;;;;15.82;1.70;;;;;;;15.95;35.79;102315.00;5021544;27;96920;-72
2023/05/18 00:13:30;;;;;;;9.05;2.15;;;;;;;15.83;36.12;102328.75;5026854;27;99117;-74
2023/05/18 00:15:57;;;;;;;8.77;1.58;;;;;;;15.90;35.99;102331.16;5018170;27;98818;-73
2023/05/18 00:18:26;;;;;;;7.75;1.63;;;;;;;15.81;36.13;102333.28;5025830;27;96780;-73
2023/05/18 00:20:57;;;;;;;11.55;2.10;;;;;;;15.71;36.12;102329.13;5022991;27;97467;-73
2023/05/18 00:23:25;;;;;;;6.72;1.60;;;;;;;15.55;36.56;102328.75;5026603;27;99639;-73
2023/05/18 00:25:51;;;;;;;12.13;1.65;;;;;;;15.55;36.80;102334.09;5027459;27;98798;-73
2023/05/18 00:28:17;;;;;;;4.35;1.50;;;;;;;15.55;36.86;102326.09;5016736;27;97198;-74
2023/05/18 00:30:45;;;;;;;12.35;1.67;;;;;;;15.59;36.79;102324.19;5029190;27;97037;-73
2023/05/18 00:33:11;;;;;;;8.43;2.03;;;;;;;15.46;37.03;102324.56;5021198;27;98918;-73
2023/05/18 00:35:38;;;;;;;5.28;1.13;;;;;;;15.45;37.22;102328.13;5028909;27;100771;-72
2023/05/18 00:38:04;;;;;;;11.52;1.90;;;;;;;15.43;37.33;102331.75;5032143;27;96769;-72
2023/05/18 00:40:31;;;;;;;7.47;1.20;;;;;;;15.57;37.33;102332.22;5031144;27;96984;-72
2023/05/18 00:42:57;;;;;;;13.00;1.83;;;;;;;15.40;37.70;102334.53;5029161;27;99248;-74
2023/05/18 00:45:25;;;;;;;7.78;1.48;;;;;;;15.48;37.30;102335.16;5026823;27;99129;-71
2023/05/18 00:47:53;;;;;;;11.05;1.88;;;;;;;15.41;37.48;102333.59;5027374;27;96772;-73
2023/05/18 00:50:19;;;;;;;7.45;1.48;;;;;;;15.46;37.56;102337.00;5025405;27;97149;-73
2023/05/18 00:52:46;;;;;;;5.18;1.77;;;;;;;15.33;37.76;102335.63;5030001;27;99766;-73
2023/05/18 00:55:13;;;;;;;8.30;1.63;;;;;;;15.52;37.42;102337.72;5023299;27;97510;-74
2023/05/18 00:57:40;;;;;;;9.00;1.48;;;;;;;15.56;37.29;102340.28;5025504;27;97114;-73
2023/05/18 01:00:09;;;;;;;16.90;2.60;;;;;;;15.54;37.35;102340.34;5015361;27;98907;-74
2023/05/18 01:02:41;;;;;;;11.68;1.75;;;;;;;15.32;37.80;102344.53;5021163;27;98973;-74
2023/05/18 01:05:09;;;;;;;8.52;1.45;;;;;;;15.36;37.96;102344.38;5025515;27;99201;-74
2023/05/18 01:07:37;;;;;;;10.18;1.83;;;;;;;15.33;38.00;102349.81;5024027;27;98652;-73
2023/05/18 01:10:03;;;;;;;9.45;1.50;;;;;;;15.38;37.87;102355.88;5019306;27;96985;-73
2023/05/18 01:12:37;;;;;;;12.60;2.05;;;;;;;15.39;37.90;102354.09;5025152;27;99244;-74
2023/05/18 01:15:08;;;;;;;12.90;2.60;;;;;;;15.23;38.42;102353.66;5024954;27;99932;-73
2023/05/18 01:17:43;;;;;;;7.93;1.50;;;;;;;15.15;38.54;102359.22;5019310;27;99005;-74
2023/05/18 01:20:28;;;;;;;10.43;1.77;;;;;;;15.42;38.31;102360.22;5023189;27;100636;-73
2023/05/18 01:23:15;;;;;;;12.00;1.50;;;;;;;15.26;38.62;102360.69;5024069;27;99282;-73
2023/05/18 01:25:49;;;;;;;11.85;1.77;;;;;;;15.42;38.19;102360.22;5022358;27;98700;-74
2023/05/18 01:28:25;;;;;;;12.20;2.47;;;;;;;15.43;38.29;102364.59;5018751;27;99327;-71
2023/05/18 01:30:52;;;;;;;12.88;1.73;;;;;;;15.61;37.97;102365.88;5022102;27;97038;-74
2023/05/18 01:33:18;;;;;;;14.55;1.75;;;;;;;15.23;38.73;102372.28;5021318;27;99103;-72
2023/05/18 01:35:46;;;;;;;8.45;1.48;;;;;;;15.32;38.62;102363.16;5019496;27;101311;-72
2023/05/18 01:38:15;;;;;;;21.35;2.05;;;;;;;15.30;38.75;102363.22;5028058;27;97197;-73
2023/05/18 01:40:54;;;;;;;9.45;1.60;;;;;;;15.33;38.51;102370.25;5023954;27;97065;-73
2023/05/18 01:43:31;;;;;;;12.02;2.10;;;;;;;15.39;38.28;102370.06;5022166;27;99198;-72
2023/05/18 01:46:04;;;;;;;8.23;1.90;;;;;;;15.44;38.36;102373.44;5020303;27;99444;-72
2023/05/18 01:48:35;;;;;;;7.05;1.23;;;;;;;15.41;38.66;102365.56;5018737;27;96961;-72
2023/05/18 01:51:02;;;;;;;14.48;2.20;;;;;;;15.39;38.72;102360.28;5019980;28;97476;-72
2023/05/18 01:53:37;;;;;;;13.55;1.77;;;;;;;15.24;38.90;102366.06;5021435;27;98620;-73
2023/05/18 01:56:07;;;;;;;10.73;2.20;;;;;;;15.18;38.84;102366.22;5028469;27;98982;-73
2023/05/18 01:58:37;;;;;;;11.68;1.42;;;;;;;15.30;38.93;102371.19;5018938;27;97822;-73
2023/05/18 02:01:04;;;;;;;10.77;1.75;;;;;;;15.26;38.79;102369.56;5019724;27;97021;-75
2023/05/18 02:03:31;;;;;;;10.70;1.58;;;;;;;15.12;39.40;102369.94;5027561;27;98525;-73
2023/05/18 02:05:58;;;;;;;17.55;1.85;;;;;;;15.10;39.29;102370.91;5026270;27;98713;-74
2023/05/18 02:08:24;;;;;;;12.50;1.85;;;;;;;15.27;38.97;102376.63;5030094;27;98277;-74
2023/05/18 02:10:51;;;;;;;9.55;1.52;;;;;;;15.13;39.16;102374.38;5026820;27;97771;-72
2023/05/18 02:13:17;;;;;;;7.78;1.90;;;;;;;15.12;39.19;102371.75;5021430;27;97835;-73
2023/05/18 02:15:45;;;;;;;12.93;1.88;;;;;;;15.13;39.17;102377.03;5021337;27;98992;-73
2023/05/18 02:18:11;;;;;;;9.02;1.27;;;;;;;15.10;39.04;102369.13;5030543;27;96769;-74
2023/05/18 02:20:39;;;;;;;12.60;1.70;;;;;;;15.03;39.35;102369.34;5027025;27;97606;-74
2023/05/18 02:23:05;;;;;;;13.93;2.42;;;;;;;15.11;39.07;102369.97;5030764;27;98946;-73
2023/05/18 02:25:32;;;;;;;13.65;1.70;;;;;;;15.00;39.32;102372.09;5027657;27;98119;-73
2023/05/18 02:27:58;;;;;;;7.80;1.42;;;;;;;14.90;39.65;102365.28;5023892;27;96862;-74
2023/05/18 02:30:24;;;;;;;9.68;1.50;;;;;;;14.82;40.00;102373.47;5029704;27;96975;-73
2023/05/18 02:32:52;;;;;;;10.48;1.70;;;;;;;14.93;39.64;102386.47;5024638;27;101392;-73
2023/05/18 02:35:19;;;;;;;9.98;1.90;;;;;;;15.01;39.44;102380.03;5024195;27;101103;-74
2023/05/18 02:37:46;;;;;;;9.60;1.48;;;;;;;15.02;39.59;102379.13;5023864;27;96818;-73
2023/05/18 02:40:15;;;;;;;15.50;1.65;;;;;;;14.91;39.96;102386.53;5031447;27;98119;-73
2023/05/18 02:42:42;;;;;;;10.30;1.60;;;;;;;15.04;39.54;102384.38;5024563;27;99360;-73
2023/05/18 02:45:09;;;;;;;9.93;2.05;;;;;;;14.70;40.53;102387.97;5022287;27;99013;-73
2023/05/18 02:47:38;;;;;;;13.77;1.95;;;;;;;14.90;40.02;102389.25;5023941;27;97225;-72
2023/05/18 02:50:07;;;;;;;15.05;1.88;;;;;;;14.70;40.46;102390.63;5021828;27;97351;-73
2023/05/18 02:52:34;;;;;;;9.00;1.65;;;;;;;14.51;40.90;102394.69;5030226;27;99464;-73
2023/05/18 02:55:01;;;;;;;10.65;2.08;;;;;;;14.96;40.18;102386.41;5024560;27;98239;-72
2023/05/18 02:57:27;;;;;;;10.77;1.83;;;;;;;14.97;40.18;102389.00;5025079;27;96911;-73
2023/05/18 02:59:53;;;;;;;10.63;2.67;;;;;;;14.92;40.51;102392.72;5023598;27;97065;-73
2023/05/18 03:02:22;;;;;;;10.40;2.45;;;;;;;14.99;40.15;102392.50;5028936;27;99440;-74
2023/05/18 03:04:52;;;;;;;9.30;2.50;;;;;;;14.84;40.49;102394.72;5020225;27;98809;-73
2023/05/18 03:07:20;;;;;;;14.10;2.45;;;;;;;14.88;40.48;102399.06;5024265;27;97781;-72
2023/05/18 03:09:46;;;;;;;19.23;2.22;;;;;;;14.99;40.37;102400.50;5027609;27;98439;-72
2023/05/18 03:12:13;;;;;;;8.30;2.08;;;;;;;14.94;40.52;102404.22;5024577;27;101600;-72
2023/05/18 03:14:39;;;;;;;11.57;1.92;;;;;;;15.01;40.43;102400.47;5028017;27;101315;-72
2023/05/18 03:17:05;;;;;;;13.20;2.17;;;;;;;14.98;40.48;102396.09;5022137;27;97250;-72
2023/05/18 03:19:33;;;;;;;18.83;7.55;;;;;;;15.12;40.27;102401.91;5019579;27;97383;-73
2023/05/18 03:22:00;;;;;;;13.13;2.30;;;;;;;15.02;40.37;102403.09;5030264;27;98941;-71
2023/05/18 03:24:29;;;;;;;12.20;1.90;;;;;;;15.00;40.58;102404.03;5029032;27;98903;-72
2023/05/18 03:26:55;;;;;;;7.78;1.58;;;;;;;14.90;40.55;102403.41;5031295;27;96915;-72
2023/05/18 03:29:22;;;;;;;10.90;2.20;;;;;;;14.96;40.62;102405.03;5027563;27;98749;-72
2023/05/18 03:31:49;;;;;;;9.73;1.30;;;;;;;14.93;40.64;102397.13;5018350;27;98401;-72
2023/05/18 03:34:15;;;;;;;6.53;1.50;;;;;;;15.14;40.09;102394.75;5021208;27;99305;-72
2023/05/18 03:36:46;;;;;;;11.63;1.98;;;;;;;14.79;40.78;102405.50;5030624;27;96806;-72
2023/05/18 03:39:12;;;;;;;12.35;2.20;;;;;;;14.91;40.55;102405.16;5022748;27;97212;-73
2023/05/18 03:41:40;;;;;;;11.30;2.30;;;;;;;14.85;40.88;102407.09;5021816;27;98838;-73
2023/05/18 03:44:06;;;;;;;14.02;1.58;;;;;;;14.96;40.65;102410.38;5027155;27;99295;-74
2023/05/18 03:46:33;;;;;;;9.52;2.30;;;;;;;14.98;40.61;102412.06;5023210;27;96898;-74
2023/05/18 03:48:59;;;;;;;8.85;1.77;;;;;;;14.93;40.70;102413.97;5029428;27;97908;-73
2023/05/18 03:51:27;;;;;;;7.20;1.38;;;;;;;14.62;41.38;102416.59;5024885;27;99067;-74
2023/05/18 03:53:54;;;;;;;9.27;1.35;;;;;;;14.87;41.00;102418.59;5028618;27;101092;-74
2023/05/18 03:56:21;;;;;;;8.80;1.83;;;;;;;14.91;40.84;102414.91;5023852;27;97077;-74
2023/05/18 03:58:50;;;;;;;11.25;2.17;;;;;;;15.07;40.59;102421.59;5026919;27;97229;-75
2023/05/18 04:01:17;;;;;;;15.85;2.03;;;;;;;14.70;41.19;102424.38;5022749;27;99589;-74
2023/05/18 04:03:44;;;;;;;13.95;2.00;;;;;;;14.88;41.08;102420.34;5021328;27;99181;-74
2023/05/18 04:06:10;;;;;;;7.70;1.45;;;;;;;14.90;41.13;102424.69;5025749;27;97227;-74
2023/05/18 04:08:37;;;;;;;7.78;2.15;;;;;;;15.06;40.93;102428.69;5026050;27;96915;-74
2023/05/18 04:11:03;;;;;;;10.88;1.90;;;;;;;15.14;40.62;102426.69;5030426;27;99831;-74
2023/05/18 04:13:30;;;;;;;11.65;1.90;;;;;;;14.99;40.81;102428.91;5018316;27;99652;-74
2023/05/18 04:15:57;;;;;;;13.32;2.10;;;;;;;14.85;40.98;102425.72;5027208;27;96919;-74
2023/05/18 04:18:29;;;;;;;6.47;1.90;;;;;;;15.05;40.74;102428.72;5024871;27;97263;-74
2023/05/18 04:20:55;;;;;;;11.75;2.10;;;;;;;14.95;41.04;102438.78;5023565;27;98984;-73
2023/05/18 04:23:22;;;;;;;10.60;1.50;;;;;;;15.21;40.58;102434.53;5027913;27;98242;-74
2023/05/18 04:25:48;;;;;;;13.05;2.33;;;;;;;15.28;40.43;102434.31;5027454;27;96931;-75
2023/05/18 04:28:15;;;;;;;7.93;1.85;;;;;;;15.25;40.47;102438.81;5028843;27;97245;-73
2023/05/18 04:30:41;;;;;;;7.13;1.58;;;;;;;15.25;40.78;102441.50;5024508;27;99479;-73
2023/05/18 04:33:09;;;;;;;13.73;2.33;;;;;;;15.25;40.60;102442.38;5023618;27;99349;-73
2023/05/18 04:35:36;;;;;;;12.13;2.55;;;;;;;15.28;40.55;102447.63;5022208;27;96857;-73
2023/05/18 04:38:04;;;;;;;11.25;2.42;;;;;;;15.02;40.93;102450.13;5022344;27;97349;-73
2023/05/18 04:40:32;;;;;;;12.88;3.58;;;;;;;15.29;40.58;102445.84;5012183;27;100166;-72
2023/05/18 04:42:59;;;;;;;11.75;1.92;;;;;;;15.21;41.05;102445.16;5021672;27;98871;-73
2023/05/18 04:45:26;;;;;;;16.38;2.58;;;;;;;15.34;40.59;102458.09;5024998;27;97065;-73
2023/05/18 04:47:53;;;;;;;8.13;1.70;;;;;;;15.41;40.46;102454.34;5025272;27;97546;-74
2023/05/18 04:50:22;;;;;;;11.50;2.38;;;;;;;15.60;40.23;102446.72;5015649;27;98149;-73
2023/05/18 04:52:50;;;;;;;8.10;2.10;;;;;;;15.46;40.32;102456.88;5026396;27;98656;-73
2023/05/18 04:55:21;;;;;;;9.52;2.55;;;;;;;15.67;39.95;102455.41;5017175;27;98981;-73
2023/05/18 04:57:48;;;;;;;10.90;1.90;;;;;;;15.51;40.28;102461.16;5023475;27;96825;-74
2023/05/18 05:00:15;;;;;;;18.77;3.30;;;;;;;15.70;40.13;102461.50;5016308;27;99388;-73
2023/05/18 05:02:41;;;;;;;13.10;1.92;;;;;;;15.81;39.92;102458.53;5023797;27;97554;-73
2023/05/18 05:05:08;;;;;;;11.40;2.40;;;;;;;15.98;39.64;102461.56;5026874;27;97410;-74
2023/05/18 05:07:36;;;;;;;5.85;1.77;;;;;;;16.17;39.22;102461.84;5026089;27;96997;-74
2023/05/18 05:10:03;;;;;;;13.27;2.45;;;;;;;16.31;39.08;102454.28;5016332;27;98976;-74
2023/05/18 05:12:29;;;;;;;10.57;2.17;;;;;;;16.98;38.04;102450.25;5026721;27;100920;-73
2023/05/18 05:14:56;;;;;;;12.20;2.08;;;;;;;17.25;36.93;102445.72;5027521;27;96886;-73
2023/05/18 05:17:22;;;;;;;14.23;2.50;;;;;;;17.27;37.07;102450.97;5023881;27;98839;-73
2023/05/18 05:19:49;;;;;;;15.88;2.90;;;;;;;17.05;37.29;102453.56;5018912;27;99477;-73
2023/05/18 05:22:19;;;;;;;16.00;2.15;;;;;;;17.03;37.47;102455.41;5027117;27;97678;-75
2023/05/18 05:24:46;;;;;;;9.02;2.13;;;;;;;16.97;37.65;102456.50;5018754;27;97799;-73
2023/05/18 05:27:13;;;;;;;11.73;2.90;;;;;;;17.24;37.19;102460.00;5027657;27;96945;-74
2023/05/18 05:29:39;;;;;;;9.13;1.88;;;;;;;17.15;37.12;102449.63;5020547;27;99287;-74
2023/05/18 05:32:07;;;;;;;11.20;1.55;;;;;;;17.04;37.59;102463.38;5028295;27;97714;-73
2023/05/18 05:34:33;;;;;;;9.98;2.08;;;;;;;17.17;37.27;102457.59;5023397;27;96714;-73
2023/05/18 05:36:59;;;;;;;14.20;1.92;;;;;;;17.00;37.39;102464.41;5028116;27;96842;-73
2023/05/18 05:39:26;;;;;;;10.18;2.10;;;;;;;17.08;37.35;102467.69;5030051;27;99121;-74
2023/05/18 05:41:53;;;;;;;13.98;2.30;;;;;;;17.03;37.46;102471.44;5029741;27;99061;-75
2023/05/18 05:44:20;;;;;;;14.68;2.03;;;;;;;17.18;37.28;102472.69;5023238;27;96976;-74
2023/05/18 05:46:46;;;;;;;19.17;2.25;;;;;;;17.26;37.08;102470.63;5025153;27;97484;-74
2023/05/18 05:49:13;;;;;;;10.75;1.70;;;;;;;17.55;36.58;102473.09;5026439;27;98914;-74
2023/05/18 05:51:39;;;;;;;11.75;2.63;;;;;;;17.50;36.38;102475.94;5025488;27;99296;-73
2023/05/18 05:54:05;;;;;;;9.32;2.00;;;;;;;17.26;36.64;102487.53;5029436;27;98813;-74
2023/05/18 05:56:33;;;;;;;7.78;1.98;;;;;;;17.26;36.49;102489.34;5029952;27;97153;-73
2023/05/18 05:59:01;;;;;;;12.20;1.85;;;;;;;16.82;37.11;102489.06;5018822;27;99391;-72
2023/05/18 06:01:27;;;;;;;10.80;2.03;;;;;;;17.33;36.54;102496.19;5015068;27;99346;-73
2023/05/18 06:03:54;;;;;;;8.13;2.00;;;;;;;17.21;36.67;102486.81;5014303;27;97127;-74
2023/05/18 06:06:21;;;;;;;8.80;1.90;;;;;;;17.26;36.68;102484.00;5010738;27;97968;-74
2023/05/18 06:08:47;;;;;;;20.98;1.88;;;;;;;17.44;36.53;102483.31;5018009;27;98934;-72
2023/05/18 06:11:13;;;;;;;10.45;1.80;;;;;;;17.61;36.45;102482.72;5018476;27;99542;-75
2023/05/18 06:13:40;;;;;;;11.02;1.80;;;;;;;17.76;36.30;102483.03;5013080;27;98163;-74
2023/05/18 06:16:08;;;;;;;16.50;3.03;;;;;;;18.49;35.04;102481.91;5015987;27;97021;-74
2023/05/18 06:18:34;;;;;;;15.23;1.83;;;;;;;18.94;33.98;102477.34;5010505;27;99346;-73
2023/05/18 06:21:00;;;;;;;11.80;2.53;;;;;;;19.13;33.57;102485.44;5011335;27;100919;-73
2023/05/18 06:23:27;;;;;;;11.35;1.98;;;;;;;18.63;34.02;102480.44;5009035;27;98933;-75
2023/05/18 06:25:53;;;;;;;14.27;1.95;;;;;;;19.21;33.42;102485.97;5017029;27;97798;-74
2023/05/18 06:28:20;;;;;;;7.40;1.50;;;;;;;19.24;33.51;102480.47;5020845;27;99551;-74
2023/05/18 06:30:47;;;;;;;9.60;1.90;;;;;;;18.82;34.01;102483.22;5017810;27;98783;-75
2023/05/18 06:33:14;;;;;;;8.90;1.70;;;;;;;18.57;34.44;102482.50;5017022;27;96985;-75
2023/05/18 06:35:41;;;;;;;12.20;2.17;;;;;;;18.48;34.51;102489.06;5013602;27;99365;-76
2023/05/18 06:38:08;;;;;;;11.20;1.70;;;;;;;18.36;34.75;102486.91;5017561;27;99170;-75
2023/05/18 06:40:35;;;;;;;10.77;2.00;;;;;;;18.86;34.21;102487.50;5019673;27;100499;-74
2023/05/18 06:43:01;;;;;;;11.15;1.95;;;;;;;19.04;33.87;102488.50;5024222;27;97661;-75
2023/05/18 06:45:28;;;;;;;11.27;2.38;;;;;;;19.18;33.44;102493.28;5013616;27;98348;-74
2023/05/18 06:47:54;;;;;;;9.13;2.15;;;;;;;19.18;33.48;102496.81;5027869;27;100092;-75
2023/05/18 06:50:22;;;;;;;8.05;1.88;;;;;;;19.48;32.49;102487.47;5026727;27;98927;-75
2023/05/18 06:52:48;;;;;;;7.60;1.45;;;;;;;19.38;32.67;102488.78;5016000;27;97464;-75
2023/05/18 06:55:15;;;;;;;14.25;1.98;;;;;;;19.66;32.22;102490.25;5020133;27;97076;-74
2023/05/18 06:57:41;;;;;;;9.45;1.85;;;;;;;19.71;31.98;102488.22;5020596;28;97826;-73
2023/05/18 07:00:09;;;;;;;11.48;2.40;;;;;;;19.40;32.48;102484.22;5026660;27;98021;-74
2023/05/18 07:02:35;;;;;;;9.52;1.92;;;;;;;19.62;32.53;102494.00;5024795;27;98381;-75
2023/05/18 07:05:04;;;;;;;12.02;2.05;;;;;;;19.75;32.21;102487.16;5026661;27;97469;-74
2023/05/18 07:07:32;;;;;;;11.10;2.13;;;;;;;19.69;32.19;102490.13;5023601;27;99549;-73
2023/05/18 07:09:58;;;;;;;10.90;1.85;;;;;;;20.29;31.38;102484.50;5027133;27;99312;-74
2023/05/18 07:12:26;;;;;;;7.32;1.77;;;;;;;20.26;31.23;102481.97;5018830;27;99185;-76
2023/05/18 07:14:52;;;;;;;14.00;1.98;;;;;;;20.20;30.93;102484.97;5025108;27;101212;-74
2023/05/18 07:17:19;;;;;;;8.63;2.28;;;;;;;20.40;30.64;102484.03;5013639;27;99372;-73
2023/05/18 07:19:45;;;;;;;15.55;2.33;;;;;;;20.10;30.43;102480.97;5024988;27;101626;-73
2023/05/18 07:22:11;;;;;;;8.95;1.52;;;;;;;20.21;30.51;102475.97;5014889;27;98439;-74
2023/05/18 07:24:39;;;;;;;11.38;1.90;;;;;;;19.78;31.05;102490.53;5037394;27;96954;-74
2023/05/18 07:27:05;;;;;;;11.18;2.13;;;;;;;19.85;30.95;102481.25;5026659;27;99334;-76
2023/05/18 07:29:32;;;;;;;13.50;2.38;;;;;;;19.82;30.91;102477.88;5024249;27;98731;-73
2023/05/18 07:31:59;;;;;;;8.27;1.85;;;;;;;20.06;30.41;102475.84;5032531;27;97078;-73
2023/05/18 07:34:26;;;;;;;8.27;2.33;;;;;;;19.89;31.35;102469.44;5021089;27;97681;-74
2023/05/18 07:36:52;;;;;;;9.45;2.05;;;;;;;19.56;31.20;102478.22;5019187;27;98770;-74
2023/05/18 07:39:19;;;;;;;13.13;2.47;;;;;;;19.16;31.99;102476.41;5017908;27;99475;-77
2023/05/18 07:41:47;;;;;;;11.95;2.13;;;;;;;19.87;30.97;102478.53;5021623;27;97786;-76
2023/05/18 07:44:14;;;;;;;8.32;1.85;;;;;;;19.81;30.70;102487.72;5031735;27;96796;-73
2023/05/18 07:46:40;;;;;;;10.68;1.67;;;;;;;19.62;31.12;102478.81;5012732;27;99009;-74
2023/05/18 07:49:07;;;;;;;13.25;2.58;;;;;;;18.91;31.94;102489.97;5021825;27;99289;-74
2023/05/18 07:51:33;;;;;;;10.40;1.70;;;;;;;19.35;31.27;102474.66;5024849;27;97237;-74
2023/05/18 07:54:00;;;;;;;10.75;1.80;;;;;;;19.68;30.31;102473.16;5028946;27;97093;-73
2023/05/18 07:56:30;;;;;;;9.55;1.80;;;;;;;19.38;30.59;102470.00;5024486;27;97660;-75
2023/05/18 07:58:58;;;;;;;15.20;3.03;;;;;;;19.31;30.23;102473.91;5029861;27;98041;-74
2023/05/18 08:01:26;;;;;;;12.55;1.77;;;;;;;20.24;29.57;102478.50;5014357;27;98230;-74
2023/05/18 08:03:53;;;;;;;12.70;2.30;;;;;;;20.44;29.51;102477.56;5018447;27;97849;-74
2023/05/18 08:06:19;;;;;;;8.45;1.85;;;;;;;20.69;29.16;102486.13;5022365;27;99241;-74
2023/05/18 08:08:46;;;;;;;8.52;1.55;;;;;;;20.77;28.73;102474.13;5010746;27;99211;-74
2023/05/18 08:11:12;;;;;;;6.22;1.60;;;;;;;20.50;27.97;102474.56;5027807;27;96837;-74
2023/05/18 08:13:39;;;;;;;7.25;1.52;;;;;;;20.36;27.96;102486.91;5015694;27;97323;-73
2023/05/18 08:16:07;;;;;;;6.78;1.55;;;;;;;20.78;27.61;102484.78;5019500;27;99183;-73
2023/05/18 08:18:33;;;;;;;4.53;1.45;;;;;;;20.39;28.11;102493.03;5019490;27;101182;-73
2023/05/18 08:21:02;;;;;;;10.48;1.95;;;;;;;20.88;27.75;102486.03;5018428;27;98056;-74
2023/05/18 08:23:29;;;;;;;12.82;1.70;;;;;;;20.99;27.39;102493.56;5021951;27;97764;-75
2023/05/18 08:25:58;;;;;;;8.27;1.92;;;;;;;20.67;27.95;102498.78;5021780;27;98056;-75
2023/05/18 08:28:25;;;;;;;7.38;1.80;;;;;;;20.57;27.93;102488.53;5023932;27;97928;-73
2023/05/18 08:30:52;;;;;;;8.43;1.70;;;;;;;20.27;28.19;102491.78;5021014;27;97729;-73
2023/05/18 08:33:19;;;;;;;6.75;1.63;;;;;;;20.35;28.40;102496.78;5023595;27;98875;-74
2023/05/18 08:35:46;;;;;;;14.05;2.00;;;;;;;20.34;28.18;102494.19;5031242;27;98985;-73
2023/05/18 08:38:13;;;;;;;6.40;1.85;;;;;;;20.17;27.89;102492.28;5014337;27;97595;-75
2023/05/18 08:40:43;;;;;;;8.85;1.27;;;;;;;20.25;27.37;102493.66;5025505;27;96805;-76
2023/05/18 08:43:17;;;;;;;6.78;1.52;;;;;;;20.55;27.29;102490.44;5019531;27;97308;-75
2023/05/18 08:45:48;;;;;;;8.25;1.42;;;;;;;20.73;27.12;102484.16;5023525;27;100115;-74
2023/05/18 08:48:16;;;;;;;8.32;1.65;;;;;;;20.66;27.64;102490.78;5016055;28;97994;-74
2023/05/18 08:50:44;;;;;;;7.57;1.50;;;;;;;20.95;27.12;102476.72;5024092;27;96860;-75
2023/05/18 08:53:11;;;;;;;5.90;1.40;;;;;;;20.78;27.50;102479.41;5022380;27;97275;-73
2023/05/18 08:55:40;;;;;;;8.50;1.52;;;;;;;20.47;27.74;102476.53;5029160;27;99181;-75
2023/05/18 08:58:09;;;;;;;7.55;1.67;;;;;;;20.46;27.74;102488.22;5032676;27;98916;-75
2023/05/18 09:00:35;;;;;;;8.18;1.95;;;;;;;20.61;27.53;102476.72;5022384;27;97241;-76
2023/05/18 09:03:04;;;;;;;13.55;1.65;;;;;;;20.75;27.53;102478.69;5022751;27;97907;-75
2023/05/18 09:05:34;;;;;;;7.50;1.23;;;;;;;21.45;26.93;102473.25;5021647;27;99549;-75
2023/05/18 09:08:02;;;;;;;9.65;1.73;;;;;;;21.52;26.42;102477.34;5028260;27;98132;-74
2023/05/18 09:10:32;;;;;;;7.75;1.92;;;;;;;21.61;26.27;102484.00;5026552;27;97006;-75
2023/05/18 09:13:04;;;;;;;7.55;1.23;;;;;;;22.45;25.29;102481.03;5032321;27;98154;-74
2023/05/18 09:15:34;;;;;;;7.35;1.40;;;;;;;22.51;24.41;102485.25;5029964;27;97837;-74
2023/05/18 09:18:00;;;;;;;3.90;1.00;;;;;;;23.05;24.23;102484.66;5021374;27;100422;-74
2023/05/18 09:20:28;;;;;;;9.88;1.42;;;;;;;22.67;23.70;102488.75;5025783;27;96965;-75
2023/05/18 09:22:55;;;;;;;8.25;1.90;;;;;;;22.34;24.85;102482.63;5023562;27;97960;-75
2023/05/18 09:25:24;;;;;;;9.25;1.48;;;;;;;22.12;25.73;102483.00;5028922;27;101876;-73
2023/05/18 09:27:52;;;;;;;12.10;1.65;;;;;;;22.04;25.69;102475.34;5035156;27;99011;-74
2023/05/18 09:30:18;;;;;;;14.05;3.40;;;;;;;21.80;26.14;102472.16;5025200;27;100030;-74
2023/05/18 09:32:47;;;;;;;10.15;2.20;;;;;;;22.02;26.02;102471.00;5023763;27;97471;-74
2023/05/18 09:35:13;;;;;;;8.88;2.22;;;;;;;22.25;25.62;102473.28;5021001;27;99026;-74
2023/05/18 09:37:41;;;;;;;10.10;2.13;;;;;;;21.66;26.12;102465.84;5021130;27;97562;-74
2023/05/18 09:40:09;;;;;;;11.55;1.90;;;;;;;21.78;26.03;102468.72;5028721;27;97819;-73
2023/05/18 09:42:37;;;;;;;7.72;1.45;;;;;;;21.95;25.53;102465.06;5021955;27;97353;-74
2023/05/18 09:45:15;;;;;;;13.18;2.00;;;;;;;21.71;25.79;102464.63;5027063;27;99772;-74
2023/05/18 09:47:41;;;;;;;5.93;1.38;;;;;;;21.72;25.95;102466.34;5031017;27;99718;-75
2023/05/18 09:50:10;;;;;;;8.43;1.23;;;;;;;21.90;26.08;102466.28;5022075;27;97329;-74
2023/05/18 09:52:41;;;;;;;8.15;1.95;;;;;;;21.80;25.77;102457.84;5025259;27;96868;-75
2023/05/18 09:55:08;;;;;;;9.10;1.40;;;;;;;21.90;25.50;102458.22;5019559;27;99284;-74
2023/05/18 09:57:40;;;;;;;7.47;1.60;;;;;;;21.95;25.14;102459.69;5024309;27;99430;-76
2023/05/18 10:00:10;;;;;;;8.18;1.55;;;;;;;22.27;24.95;102460.56;5020170;27;97084;-73
2023/05/18 10:02:38;;;;;;;6.03;1.63;;;;;;;22.43;24.34;102464.13;5018149;27;98253;-73
2023/05/18 10:05:06;;;;;;;8.18;1.13;;;;;;;22.39;24.42;102458.97;5024588;27;98993;-73
2023/05/18 10:07:36;;;;;;;4.78;1.00;;;;;;;22.11;24.86;102457.91;5025775;27;97646;-74
2023/05/18 10:10:03;;;;;;;4.88;1.38;;;;;;;21.82;25.17;102458.63;5025532;27;97534;-75
2023/05/18 10:12:30;;;;;;;6.05;1.33;;;;;;;21.87;25.19;102454.72;5016544;27;97457;-74
2023/05/18 10:14:57;;;;;;;10.38;1.48;;;;;;;21.92;24.78;102453.63;5021549;27;99321;-74
2023/05/18 10:17:26;;;;;;;7.47;1.42;;;;;;;22.12;24.64;102450.69;5019908;27;98082;-74
2023/05/18 10:19:59;;;;;;;6.22;1.58;;;;;;;22.32;24.51;102455.78;5024083;27;97066;-73
2023/05/18 10:22:27;;;;;;;6.78;1.50;;;;;;;22.41;24.18;102449.00;5025615;27;97470;-75
2023/05/18 10:24:55;;;;;;;11.75;1.98;;;;;;;22.25;23.98;102444.50;5024811;27;99199;-74
2023/05/18 10:27:26;;;;;;;4.85;1.35;;;;;;;22.21;24.07;102442.94;5028230;27;98934;-75
2023/05/18 10:29:54;;;;;;;5.32;1.20;;;;;;;21.91;24.51;102435.72;5020547;27;97287;-74
2023/05/18 10:32:24;;;;;;;5.28;1.38;;;;;;;21.84;25.15;102427.13;5018795;27;98168;-74
2023/05/18 10:34:52;;;;;;;5.05;1.52;;;;;;;21.70;25.15;102425.22;5021958;27;98652;-73
2023/05/18 10:37:22;;;;;;;4.22;1.35;;;;;;;21.92;24.96;102422.19;5017426;27;100093;-74
2023/05/18 10:39:51;;;;;;;8.23;1.50;;;;;;;21.67;25.28;102419.97;5019170;27;97759;-74
2023/05/18 10:42:19;;;;;;;8.10;1.60;;;;;;;21.64;25.55;102430.94;5021704;27;97129;-73
2023/05/18 10:44:47;;;;;;;7.88;1.48;;;;;;;21.78;25.47;102422.97;5022475;27;100203;-73
2023/05/18 10:47:14;;;;;;;6.43;1.55;;;;;;;21.69;25.29;102422.59;5021181;27;97543;-73
2023/05/18 10:49:46;;;;;;;6.70;1.20;;;;;;;21.35;25.50;102428.94;5029702;27;99111;-73
2023/05/18 10:52:13;;;;;;;5.28;1.10;;;;;;;21.66;25.57;102422.78;5024333;27;97540;-73
2023/05/18 10:54:40;;;;;;;5.38;1.63;;;;;;;21.28;25.67;102424.84;5022618;27;100287;-75
2023/05/18 10:57:10;;;;;;;4.47;1.70;;;;;;;21.35;25.54;102426.25;5026512;27;98837;-74
2023/05/18 10:59:38;;;;;;;6.05;1.45;;;;;;;21.39;25.66;102417.97;5025486;27;97064;-74
2023/05/18 11:02:06;;;;;;;10.07;2.22;;;;;;;21.28;25.85;102417.66;5018496;27;97229;-73
2023/05/18 11:04:33;;;;;;;8.23;1.58;;;;;;;21.33;25.60;102417.44;5018448;27;98974;-73
2023/05/18 11:07:01;;;;;;;6.88;1.45;;;;;;;21.53;25.68;102417.19;5020751;27;98861;-73
2023/05/18 11:09:29;;;;;;;7.13;1.70;;;;;;;21.53;26.14;102419.03;5023528;27;96860;-74
2023/05/18 11:12:00;;;;;;;4.75;1.52;;;;;;;21.28;25.98;102414.97;5018599;27;97085;-74
2023/05/18 11:14:27;;;;;;;7.20;1.10;;;;;;;20.98;26.19;102420.16;5021919;27;98897;-74
2023/05/18 11:17:14;;;;;;;16.05;2.00;;;;;;;21.28;25.77;102417.66;5018514;27;99029;-74
2023/05/18 11:19:40;;;;;;;9.60;1.58;;;;;;;21.36;25.75;102428.00;5016646;27;98381;-74
2023/05/18 11:22:12;;;;;;;6.72;1.35;;;;;;;21.39;25.50;102423.34;5018409;27;97125;-73